Time;durP1;ratioP1;P1;durP2;ratioP2;P2;SDS_P1;SDS_P2;PMS_P1;PMS_P2;Temp;Humidity;BMP_temperature;BMP_pressure;BME280_temperature;BME280_humidity;BME280_pressure;Samples;Min_cycle;Max_cycle;Signal;HPM_P1;HPM_P2
2021/10/31 00:00:54;;;;;;;;;;;8.50;99.90;;;7.14;100.00;95252.25;10525326;28;1918;-78
2021/10/31 00:05:57;;;;;;;;;;;8.40;99.90;;;7.04;100.00;95269.06;10524354;28;1844;-77
2021/10/31 00:11:01;;;;;;;;;;;8.30;99.90;;;6.91;100.00;95291.72;10528662;28;1963;-78
2021/10/31 00:16:06;;;;;;;;;;;8.20;99.90;;;6.89;100.00;95290.38;10539554;28;1967;-77
2021/10/31 00:21:08;;;;;;;;;;;8.10;99.90;;;6.80;100.00;95298.09;10534400;28;2112;-77
2021/10/31 00:26:11;;;;;;;;;;;8.10;99.90;;;6.82;100.00;95311.22;10527668;28;1995;-77
2021/10/31 00:31:14;;;;;;;;;;;8.00;99.90;;;6.95;100.00;95308.06;10515443;28;2118;-78
2021/10/31 00:36:17;;;;;;;;;;;8.10;99.90;;;6.97;100.00;95304.03;10532682;28;1841;-78
2021/10/31 00:41:20;;;;;;;;;;;8.10;99.90;;;7.07;100.00;95302.47;10523673;28;2113;-77
2021/10/31 00:46:23;;;;;;;;;;;8.20;99.90;;;7.20;100.00;95312.69;10525786;28;1958;-77
2021/10/31 00:51:26;;;;;;;;;;;8.20;99.90;;;7.28;100.00;95310.28;10520861;28;1861;-78
2021/10/31 00:56:30;;;;;;;;;;;8.30;99.90;;;7.35;100.00;95303.88;10522570;28;1931;-78
2021/10/31 01:01:34;;;;;;;;;;;8.40;99.90;;;7.31;100.00;95303.59;10515431;28;1913;-78
2021/10/31 01:06:37;;;;;;;;;;;8.40;99.90;;;7.13;100.00;95291.53;10529691;28;1840;-78
2021/10/31 01:11:40;;;;;;;;;;;8.30;99.90;;;7.08;100.00;95288.84;10527763;28;1930;-76
2021/10/31 01:16:43;;;;;;;;;;;8.30;99.90;;;7.03;100.00;95297.66;10527946;28;1923;-78
2021/10/31 01:21:46;;;;;;;;;;;8.20;99.90;;;7.00;100.00;95287.50;10526150;28;1968;-77
2021/10/31 01:26:49;;;;;;;;;;;8.20;99.90;;;7.02;100.00;95292.56;10516405;28;1895;-78
2021/10/31 01:31:52;;;;;;;;;;;8.10;99.90;;;7.02;100.00;95298.72;10517932;28;1987;-78
2021/10/31 01:36:55;;;;;;;;;;;8.10;99.90;;;7.01;100.00;95290.97;10524065;28;2103;-78
2021/10/31 01:41:58;;;;;;;;;;;8.20;99.90;;;6.99;100.00;95296.56;10529698;28;2098;-78
2021/10/31 01:47:01;;;;;;;;;;;8.20;99.90;;;7.04;100.00;95307.25;10529144;28;1948;-79
2021/10/31 01:52:04;;;;;;;;;;;8.10;99.90;;;7.27;100.00;95305.19;10525642;28;1947;-78
2021/10/31 01:57:07;;;;;;;;;;;8.20;99.90;;;7.45;100.00;95299.38;10511943;28;1925;-78
2021/10/31 02:02:10;;;;;;;;;;;8.40;99.90;;;7.57;100.00;95294.56;10515929;28;2175;-78
2021/10/31 02:07:13;;;;;;;;;;;8.50;99.90;;;7.54;100.00;95292.41;10522949;28;1888;-78
2021/10/31 02:12:36;;;;;;;;;;;8.60;99.90;;;7.28;100.00;95298.78;10514988;28;1872;-78
2021/10/31 02:17:59;;;;;;;;;;;8.50;99.90;;;7.09;100.00;95297.66;10520780;28;1850;-78
2021/10/31 02:23:21;;;;;;;;;;;8.40;99.90;;;6.90;100.00;95305.34;10524953;28;1909;-78
2021/10/31 02:28:44;;;;;;;;;;;8.20;99.90;;;6.76;100.00;95302.38;10531473;28;1947;-77
2021/10/31 02:34:07;;;;;;;;;;;8.10;99.90;;;6.64;100.00;95309.78;10525677;28;1979;-77
2021/10/31 02:39:30;;;;;;;;;;;7.90;99.90;;;6.54;100.00;95312.38;10521524;28;1993;-78
2021/10/31 02:44:42;;;;;;;;;;;7.80;99.90;;;6.47;100.00;95293.94;10516027;28;1899;-77
2021/10/31 02:49:45;;;;;;;;;;;7.70;99.90;;;6.49;100.00;95292.63;10530085;28;1935;-77
2021/10/31 02:55:08;;;;;;;;;;;7.70;99.90;;;6.68;100.00;95300.16;10526098;28;1912;-77
2021/10/31 03:00:11;;;;;;;;;;;7.70;99.90;;;6.77;100.00;95299.41;10527950;28;1951;-78
2021/10/31 03:05:14;;;;;;;;;;;7.90;99.90;;;6.83;100.00;95308.25;10525108;28;1879;-78
2021/10/31 03:10:17;;;;;;;;;;;7.90;99.90;;;6.81;100.00;95313.06;10525964;28;1868;-76
2021/10/31 03:15:20;;;;;;;;;;;7.90;99.90;;;6.86;100.00;95322.97;10526419;28;2023;-77
2021/10/31 03:20:23;;;;;;;;;;;7.90;99.90;;;6.76;100.00;95313.84;10524091;28;1974;-77
2021/10/31 03:25:26;;;;;;;;;;;7.90;99.90;;;6.66;100.00;95313.00;10525693;28;2043;-78
2021/10/31 03:30:28;;;;;;;;;;;7.90;99.90;;;6.55;100.00;95316.66;10527493;28;1843;-78
2021/10/31 03:35:31;;;;;;;;;;;7.80;99.90;;;6.43;100.00;95315.03;10523928;28;1965;-76
2021/10/31 03:40:34;;;;;;;;;;;7.70;99.90;;;6.33;100.00;95322.16;10519727;28;2025;-76
2021/10/31 03:45:39;;;;;;;;;;;7.60;99.90;;;6.25;100.00;95320.78;10523077;28;1983;-77
2021/10/31 03:50:41;;;;;;;;;;;7.50;99.90;;;6.18;100.00;95313.00;10527142;28;1915;-77
2021/10/31 03:55:44;;;;;;;;;;;7.40;99.90;;;6.13;100.00;95306.81;10569798;28;2127;-78
2021/10/31 04:00:47;;;;;;;;;;;7.40;99.90;;;6.08;100.00;95301.44;10582659;28;1953;-78
2021/10/31 04:05:50;;;;;;;;;;;7.30;99.90;;;6.03;100.00;95304.06;10580387;28;1318;-77
2021/10/31 04:10:53;;;;;;;;;;;7.30;99.90;;;5.98;100.00;95302.19;10568456;28;1877;-77
2021/10/31 04:15:56;;;;;;;;;;;7.30;99.90;;;5.91;100.00;95293.56;10547754;28;2007;-78
2021/10/31 04:21:19;;;;;;;;;;;7.20;99.90;;;5.94;100.00;95296.53;10521324;28;1983;-78
2021/10/31 04:26:22;;;;;;;;;;;7.20;99.90;;;5.89;100.00;95288.47;10531898;28;2006;-79
2021/10/31 04:31:25;;;;;;;;;;;7.20;99.90;;;5.89;100.00;95285.81;10526126;28;2014;-78
2021/10/31 04:36:28;;;;;;;;;;;7.10;99.90;;;5.86;100.00;95278.31;10555289;28;1684;-77
2021/10/31 04:41:31;;;;;;;;;;;7.10;99.90;;;5.81;100.00;95269.47;10587833;28;1948;-77
2021/10/31 04:46:34;;;;;;;;;;;7.10;99.90;;;5.75;100.00;95284.63;10586488;28;1612;-78
2021/10/31 04:51:37;;;;;;;;;;;7.00;99.90;;;5.78;100.00;95272.63;10571857;28;2003;-77
2021/10/31 04:56:40;;;;;;;;;;;7.00;99.90;;;5.76;100.00;95278.22;10565565;28;1959;-77
2021/10/31 05:01:43;;;;;;;;;;;7.00;99.90;;;5.79;100.00;95271.56;10560635;28;1982;-77
2021/10/31 05:06:46;;;;;;;;;;;7.00;99.90;;;5.76;100.00;95267.56;10553371;28;1885;-77
2021/10/31 05:11:49;;;;;;;;;;;7.00;99.90;;;5.73;100.00;95262.75;10553299;28;1941;-76
2021/10/31 05:16:52;;;;;;;;;;;6.90;99.90;;;5.66;100.00;95262.13;10553523;28;1825;-78
2021/10/31 05:21:55;;;;;;;;;;;6.90;99.90;;;5.60;100.00;95255.19;10541323;28;1917;-78
2021/10/31 05:26:58;;;;;;;;;;;6.80;99.90;;;5.55;100.00;95244.47;10534739;28;1823;-78
2021/10/31 05:32:01;;;;;;;;;;;6.80;99.90;;;5.51;100.00;95235.38;10547257;28;1873;-77
2021/10/31 05:37:04;;;;;;;;;;;6.70;99.90;;;5.48;100.00;95236.69;10548238;28;1889;-78
2021/10/31 05:42:06;;;;;;;;;;;6.70;99.90;;;5.48;100.00;95239.38;10546760;28;1909;-79
2021/10/31 05:47:09;;;;;;;;;;;6.70;99.90;;;5.46;100.00;95238.78;10529005;28;1905;-78
2021/10/31 05:52:13;;;;;;;;;;;6.70;99.90;;;5.46;100.00;95240.66;10527039;28;1931;-79
2021/10/31 05:57:16;;;;;;;;;;;6.70;99.90;;;5.45;100.00;95239.06;10525030;28;2023;-79
2021/10/31 06:02:19;;;;;;;;;;;6.70;99.90;;;5.49;100.00;95234.84;10532270;28;2021;-80
2021/10/31 06:07:22;;;;;;;;;;;6.60;99.90;;;5.48;100.00;95233.22;10532842;28;1877;-78
2021/10/31 06:12:25;;;;;;;;;;;6.70;99.90;;;5.48;100.00;95233.22;10530508;28;1912;-77
2021/10/31 06:17:28;;;;;;;;;;;6.70;99.90;;;5.55;100.00;95228.47;10543809;28;1861;-77
2021/10/31 06:22:30;;;;;;;;;;;6.70;99.90;;;5.62;100.00;95232.53;10531481;28;2091;-78
2021/10/31 06:27:33;;;;;;;;;;;6.80;99.90;;;5.69;100.00;95232.31;10529003;28;1884;-78
2021/10/31 06:32:36;;;;;;;;;;;6.80;99.90;;;5.77;100.00;95231.03;10525636;28;2024;-78
2021/10/31 06:37:39;;;;;;;;;;;6.90;99.90;;;5.82;100.00;95221.19;10522190;28;2019;-77
2021/10/31 06:42:42;;;;;;;;;;;6.90;99.90;;;5.98;100.00;95224.81;10524999;28;1919;-78
2021/10/31 06:47:45;;;;;;;;;;;7.00;99.90;;;6.12;100.00;95227.81;10532866;28;1939;-79
2021/10/31 06:52:50;;;;;;;;;;;7.10;99.90;;;6.24;100.00;95220.41;10544637;28;1605;-79
2021/10/31 06:57:53;;;;;;;;;;;7.20;99.90;;;6.34;100.00;95217.78;10538399;28;1852;-79
2021/10/31 07:02:55;;;;;;;;;;;7.30;99.90;;;6.55;100.00;95209.84;10531790;28;2042;-79
2021/10/31 07:07:58;;;;;;;;;;;7.50;99.90;;;6.75;100.00;95209.94;10523535;28;1955;-78
2021/10/31 07:13:01;;;;;;;;;;;7.60;99.90;;;7.15;100.00;95206.53;10521973;28;1892;-77
2021/10/31 07:18:04;;;;;;;;;;;8.00;99.90;;;7.38;99.50;95202.56;10521086;28;1924;-78
2021/10/31 07:23:07;;;;;;;;;;;8.20;99.90;;;7.36;99.95;95193.97;10517533;28;2002;-77
2021/10/31 07:28:10;;;;;;;;;;;8.30;99.90;;;7.49;99.23;95203.34;10529361;28;1944;-79
2021/10/31 07:33:14;;;;;;;;;;;8.40;99.90;;;7.64;96.98;95195.34;10521341;28;1895;-77
2021/10/31 07:38:16;;;;;;;;;;;8.50;99.90;;;7.92;94.01;95188.59;10536400;28;1951;-77
2021/10/31 07:43:19;;;;;;;;;;;8.70;99.90;;;8.12;93.17;95185.88;10527033;28;2094;-78
2021/10/31 07:48:22;;;;;;;;;;;8.90;99.90;;;8.42;89.92;95200.28;10524160;28;1931;-78
2021/10/31 07:53:25;;;;;;;;;;;9.10;99.90;;;8.72;87.53;95198.53;10525521;28;1927;-78
2021/10/31 07:58:29;;;;;;;;;;;9.40;99.90;;;8.95;85.16;95189.81;10524663;28;1916;-78
2021/10/31 08:03:32;;;;;;;;;;;9.60;99.90;;;9.16;84.55;95194.00;10520308;28;2005;-78
2021/10/31 08:08:35;;;;;;;;;;;9.80;99.90;;;9.33;83.44;95190.13;10522694;28;2003;-78
2021/10/31 08:13:39;;;;;;;;;;;10.10;99.90;;;9.67;81.13;95182.03;10527199;28;1916;-77
2021/10/31 08:18:41;;;;;;;;;;;10.20;99.90;;;10.18;78.64;95170.81;10521755;28;1908;-79
2021/10/31 08:23:44;;;;;;;;;;;10.60;99.90;;;10.61;74.67;95162.81;10520758;28;1922;-79
2021/10/31 08:28:49;;;;;;;;;;;11.10;99.90;;;11.02;70.14;95153.13;10522949;28;3299;-78
2021/10/31 08:33:55;;;;;;;;;;;11.50;99.90;;;11.30;68.99;95156.72;10525018;28;2731;-79
2021/10/31 08:38:58;;;;;;;;;;;12.00;99.90;;;11.53;68.24;95140.78;10523422;28;2283;-78
2021/10/31 08:44:01;;;;;;;;;;;12.30;99.90;;;11.69;66.95;95134.03;10526470;28;2047;-78
2021/10/31 08:49:07;;;;;;;;;;;12.50;99.90;;;11.96;65.73;95122.56;10522085;28;2326;-79
2021/10/31 08:54:10;;;;;;;;;;;12.60;99.90;;;12.13;64.36;95111.97;10531603;28;1929;-79
2021/10/31 08:59:13;;;;;;;;;;;12.90;99.90;;;12.18;64.54;95105.69;10526637;28;1896;-77
2021/10/31 09:04:16;;;;;;;;;;;13.10;99.90;;;12.40;62.29;95099.59;10522061;28;2350;-77
2021/10/31 09:09:19;;;;;;;;;;;13.20;99.90;;;12.63;61.43;95087.78;10520165;28;1991;-78
2021/10/31 09:14:22;;;;;;;;;;;13.40;99.90;;;12.91;60.68;95080.41;10525001;28;1903;-78
2021/10/31 09:19:25;;;;;;;;;;;13.70;99.90;;;13.20;59.68;95071.09;10525954;28;2212;-80
2021/10/31 09:24:28;;;;;;;;;;;13.90;99.90;;;13.39;58.84;95055.53;10536373;28;1967;-79
2021/10/31 09:29:31;;;;;;;;;;;14.10;99.90;;;13.65;58.07;95042.19;10541475;28;1900;-79
2021/10/31 09:34:34;;;;;;;;;;;14.40;99.90;;;13.84;56.56;95049.25;10535140;28;2007;-79
2021/10/31 09:39:36;;;;;;;;;;;14.60;99.90;;;14.01;55.64;95033.13;10535593;28;1957;-78
2021/10/31 09:44:48;;;;;;;;;;;14.80;99.90;;;14.28;54.21;95029.38;10528969;28;1916;-78
2021/10/31 09:49:51;;;;;;;;;;;15.00;99.90;;;14.50;53.30;95020.38;10531802;28;1963;-78
2021/10/31 09:54:54;;;;;;;;;;;15.20;99.90;;;14.60;52.90;95007.34;10540198;28;1951;-79
2021/10/31 09:59:58;;;;;;;;;;;15.30;99.90;;;14.71;52.74;95001.63;10538140;28;1921;-78
2021/10/31 10:05:01;;;;;;;;;;;15.50;99.90;;;14.78;51.41;94985.72;10527170;28;2305;-78
2021/10/31 10:10:04;;;;;;;;;;;15.60;99.90;;;15.12;49.33;94985.66;10536514;28;1963;-78
2021/10/31 10:15:07;;;;;;;;;;;15.70;99.90;;;15.13;50.18;94983.75;10530507;28;1908;-79
2021/10/31 10:20:10;;;;;;;;;;;16.00;99.90;;;15.24;49.30;94976.09;10533673;28;1935;-77
2021/10/31 10:25:13;;;;;;;;;;;16.00;99.90;;;15.24;49.37;94967.97;10546678;28;1985;-78
2021/10/31 10:30:16;;;;;;;;;;;16.10;99.90;;;15.32;48.28;94950.91;10564333;28;1428;-77
2021/10/31 10:35:19;;;;;;;;;;;16.10;99.90;;;15.33;47.40;94947.06;10546636;28;1973;-79
2021/10/31 10:40:23;;;;;;;;;;;16.20;99.90;;;15.35;47.45;94928.59;10534262;28;2002;-78
2021/10/31 10:45:26;;;;;;;;;;;16.20;99.90;;;15.38;47.50;94925.25;10550517;28;1950;-78
2021/10/31 10:50:32;;;;;;;;;;;16.30;99.90;;;15.54;47.13;94907.34;10553998;28;1994;-79
2021/10/31 10:55:35;;;;;;;;;;;16.40;99.90;;;15.54;47.77;94898.41;10536114;28;2129;-78
2021/10/31 11:00:37;;;;;;;;;;;16.40;99.90;;;15.66;50.41;94880.38;10535713;28;1952;-78
2021/10/31 11:05:40;;;;;;;;;;;16.50;99.90;;;15.63;50.56;94859.34;10532687;28;1909;-78
2021/10/31 11:10:43;;;;;;;;;;;16.60;99.90;;;15.57;49.51;94878.78;10543470;28;1935;-79
2021/10/31 11:15:46;;;;;;;;;;;16.50;99.90;;;15.59;48.90;94879.28;10566632;28;1452;-75
2021/10/31 11:20:49;;;;;;;;;;;16.50;99.90;;;15.61;47.09;94861.56;10561874;28;1861;-80
2021/10/31 11:25:52;;;;;;;;;;;16.50;99.90;;;15.66;47.02;94858.72;10534397;28;1999;-78
2021/10/31 11:30:55;;;;;;;;;;;16.50;99.90;;;15.61;47.15;94848.03;10548224;28;1860;-80
2021/10/31 11:35:58;;;;;;;;;;;16.60;99.90;;;15.69;47.19;94838.28;10559982;28;1472;-78
2021/10/31 11:41:02;;;;;;;;;;;16.70;99.90;;;15.79;47.05;94829.00;10566826;28;1859;-77
2021/10/31 11:46:05;;;;;;;;;;;16.70;99.90;;;15.73;48.12;94819.47;10556150;28;1903;-77
2021/10/31 11:51:09;;;;;;;;;;;16.80;99.90;;;15.75;48.51;94811.78;10563671;28;1911;-78
2021/10/31 11:56:12;;;;;;;;;;;16.70;99.90;;;15.90;48.61;94792.22;10561541;28;1757;-79
2021/10/31 12:01:15;;;;;;;;;;;16.80;99.90;;;16.01;46.90;94779.88;10564815;28;1941;-77
2021/10/31 12:06:18;;;;;;;;;;;16.90;99.90;;;15.97;47.45;94770.81;10562486;28;1954;-77
2021/10/31 12:11:21;;;;;;;;;;;16.90;99.90;;;16.01;48.40;94763.59;10557747;28;1941;-78
2021/10/31 12:16:23;;;;;;;;;;;16.90;99.90;;;16.13;46.37;94752.81;10569131;28;1504;-79
2021/10/31 12:21:26;;;;;;;;;;;16.90;99.90;;;16.02;45.38;94754.34;10571210;28;1681;-79
2021/10/31 12:26:29;;;;;;;;;;;16.90;99.90;;;16.05;44.63;94729.28;10533575;28;1914;-80
2021/10/31 12:31:32;;;;;;;;;;;16.90;99.90;;;16.24;44.18;94726.09;10539049;28;1905;-79
2021/10/31 12:36:35;;;;;;;;;;;17.00;99.90;;;16.20;44.29;94720.53;10529357;28;3386;-79
2021/10/31 12:41:38;;;;;;;;;;;17.10;99.90;;;16.31;43.68;94711.97;10533368;28;2378;-78
2021/10/31 12:46:43;;;;;;;;;;;17.20;99.90;;;16.21;43.10;94708.53;10527658;28;1952;-78
2021/10/31 12:51:50;;;;;;;;;;;17.20;99.90;;;16.21;42.83;94705.84;10544491;28;2330;-79
2021/10/31 12:56:54;;;;;;;;;;;17.20;99.90;;;16.27;42.02;94698.28;10534929;28;1885;-78
2021/10/31 13:01:57;;;;;;;;;;;17.20;99.90;;;16.24;42.47;94698.97;10536684;28;1964;-79
2021/10/31 13:07:00;;;;;;;;;;;17.20;99.90;;;16.14;43.09;94686.63;10540896;28;1917;-78
2021/10/31 13:12:03;;;;;;;;;;;17.20;99.90;;;16.20;43.23;94687.97;10535096;28;2346;-78
2021/10/31 13:17:06;;;;;;;;;;;17.20;99.90;;;16.36;42.45;94674.59;10526149;28;1938;-78
2021/10/31 13:22:09;;;;;;;;;;;17.20;99.90;;;16.46;42.47;94665.22;10529241;28;2265;-79
2021/10/31 13:27:12;;;;;;;;;;;17.30;99.90;;;16.46;41.92;94654.34;10525227;28;2262;-77
2021/10/31 13:32:15;;;;;;;;;;;17.40;99.90;;;16.36;41.77;94643.97;10542254;28;1884;-79
2021/10/31 13:37:18;;;;;;;;;;;17.40;99.90;;;16.30;42.90;94637.19;10532289;28;1940;-78
2021/10/31 13:42:20;;;;;;;;;;;17.30;99.90;;;16.49;41.80;94635.50;10542460;28;1860;-79
2021/10/31 13:47:30;;;;;;;;;;;17.40;99.90;;;16.53;41.34;94635.59;10535241;28;1992;-79
2021/10/31 13:52:33;;;;;;;;;;;17.40;99.90;;;16.46;41.75;94630.72;10528640;28;1953;-78
2021/10/31 13:57:36;;;;;;;;;;;17.40;99.90;;;16.46;41.83;94627.22;10540493;28;1889;-78
2021/10/31 14:02:39;;;;;;;;;;;17.40;99.90;;;16.49;41.83;94632.78;10521786;28;1985;-79
2021/10/31 14:07:43;;;;;;;;;;;17.40;99.90;;;16.32;42.81;94626.78;10530911;28;1911;-77
2021/10/31 14:12:45;;;;;;;;;;;17.40;99.90;;;16.21;43.30;94615.56;10539251;28;2328;-79
2021/10/31 14:17:48;;;;;;;;;;;17.20;99.90;;;16.28;43.06;94617.72;10538006;28;2267;-77
2021/10/31 14:22:51;;;;;;;;;;;17.20;99.90;;;16.19;43.98;94631.41;10537910;28;1961;-77
2021/10/31 14:27:54;;;;;;;;;;;17.20;99.90;;;16.06;45.14;94627.06;10533684;28;1888;-78
2021/10/31 14:32:59;;;;;;;;;;;17.10;99.90;;;16.09;45.79;94620.97;10533800;28;1994;-78
2021/10/31 14:38:03;;;;;;;;;;;17.00;99.90;;;16.11;46.45;94621.44;10534138;28;1873;-79
2021/10/31 14:43:06;;;;;;;;;;;17.00;99.90;;;15.99;47.46;94633.06;10527862;28;2000;-78
2021/10/31 14:48:09;;;;;;;;;;;17.00;99.90;;;15.92;47.80;94630.88;10521688;28;1959;-78
2021/10/31 14:53:12;;;;;;;;;;;16.90;99.90;;;15.81;48.87;94634.34;10535240;28;1924;-78
2021/10/31 14:58:15;;;;;;;;;;;16.80;99.90;;;15.69;49.26;94635.09;10531525;28;1983;-77
2021/10/31 15:03:19;;;;;;;;;;;16.70;99.90;;;15.54;52.88;94627.56;10526504;28;1909;-78
2021/10/31 15:08:36;;;;;;;;;;;16.60;99.90;;;15.13;55.74;94640.78;10531146;28;1921;-78
2021/10/31 15:13:40;;;;;;;;;;;16.30;99.90;;;14.91;56.96;94635.69;10551362;28;1895;-79
2021/10/31 15:18:42;;;;;;;;;;;16.10;99.90;;;14.64;58.27;94641.59;10539753;28;1885;-77
2021/10/31 15:23:45;;;;;;;;;;;15.90;99.90;;;14.52;59.19;94636.88;10524256;28;1914;-77
2021/10/31 15:28:48;;;;;;;;;;;15.70;99.90;;;14.26;60.31;94634.25;10531522;28;1852;-77
2021/10/31 15:33:51;;;;;;;;;;;15.50;99.90;;;14.22;60.56;94625.19;10521725;28;1908;-77
2021/10/31 15:38:54;;;;;;;;;;;15.30;99.90;;;14.10;61.44;94627.78;10531627;28;1920;-79
2021/10/31 15:43:57;;;;;;;;;;;15.20;99.90;;;13.73;62.86;94622.78;10530538;28;2279;-77
2021/10/31 15:49:00;;;;;;;;;;;15.00;99.90;;;13.63;63.56;94630.47;10527037;28;1905;-79
2021/10/31 15:54:03;;;;;;;;;;;14.80;99.90;;;13.33;65.35;94624.13;10557859;28;2129;-77
2021/10/31 15:59:06;;;;;;;;;;;14.60;99.90;;;13.12;66.77;94629.34;10561460;28;1896;-78
2021/10/31 16:04:09;;;;;;;;;;;14.40;99.90;;;12.89;67.90;94621.38;10527474;28;1929;-80
2021/10/31 16:09:13;;;;;;;;;;;14.20;99.90;;;12.69;69.90;94622.00;10539575;28;1941;-79
2021/10/31 16:14:16;;;;;;;;;;;13.90;99.90;;;12.40;70.77;94620.66;10561578;28;1728;-77
2021/10/31 16:19:18;;;;;;;;;;;13.80;99.90;;;12.49;70.77;94622.59;10547574;28;2135;-78
2021/10/31 16:24:21;;;;;;;;;;;13.70;99.90;;;12.30;72.10;94614.75;10526237;28;1914;-79
2021/10/31 16:29:25;;;;;;;;;;;13.60;99.90;;;12.17;73.68;94622.66;10515046;28;1915;-77
2021/10/31 16:34:27;;;;;;;;;;;13.40;99.90;;;11.92;75.11;94620.63;10528255;28;1975;-78
2021/10/31 16:39:31;;;;;;;;;;;13.20;99.90;;;11.73;76.70;94618.13;10544922;28;1849;-78
2021/10/31 16:44:34;;;;;;;;;;;13.10;99.90;;;11.57;78.39;94625.00;10579911;28;1956;-79
2021/10/31 16:49:37;;;;;;;;;;;12.90;99.90;;;11.51;78.73;94615.47;10582607;28;1800;-79
2021/10/31 16:54:40;;;;;;;;;;;12.80;99.90;;;11.45;80.62;94611.28;10579309;28;1734;-78
2021/10/31 16:59:43;;;;;;;;;;;12.70;99.90;;;11.50;81.41;94609.28;10566509;28;1872;-78
2021/10/31 17:04:46;;;;;;;;;;;12.70;99.90;;;11.24;84.10;94611.78;10552839;28;1894;-78
2021/10/31 17:09:49;;;;;;;;;;;12.50;99.90;;;11.23;83.87;94609.41;10539012;28;1709;-79
2021/10/31 17:14:52;;;;;;;;;;;12.50;99.90;;;11.04;85.75;94610.38;10547662;28;1896;-78
2021/10/31 17:19:55;;;;;;;;;;;12.40;99.90;;;10.95;86.80;94608.75;10538691;28;1813;-77
2021/10/31 17:24:57;;;;;;;;;;;12.20;99.90;;;11.03;87.58;94606.13;10545793;28;1918;-78
2021/10/31 17:30:00;;;;;;;;;;;12.20;99.90;;;10.87;87.61;94612.13;10565834;28;1651;-78
2021/10/31 17:35:03;;;;;;;;;;;12.10;99.90;;;10.92;88.56;94609.34;10579740;28;1872;-79
2021/10/31 17:40:06;;;;;;;;;;;12.00;99.90;;;10.82;88.81;94613.06;10577441;28;1652;-78
2021/10/31 17:45:09;;;;;;;;;;;12.00;99.90;;;10.69;89.42;94614.69;10539242;28;1983;-77
2021/10/31 17:50:20;;;;;;;;;;;11.90;99.90;;;10.65;90.02;94594.09;10552693;28;1924;-78
2021/10/31 17:55:23;;;;;;;;;;;11.80;99.90;;;10.86;89.47;94591.72;10538120;28;1879;-78
2021/10/31 18:00:26;;;;;;;;;;;11.90;99.90;;;10.84;89.17;94594.72;10544237;28;2011;-79
2021/10/31 18:05:32;;;;;;;;;;;11.90;99.90;;;10.83;88.94;94585.06;10542165;28;2016;-77
2021/10/31 18:10:35;;;;;;;;;;;12.00;99.90;;;10.83;88.60;94582.38;10540975;28;1801;-79
2021/10/31 18:15:38;;;;;;;;;;;12.00;99.90;;;10.75;88.93;94578.53;10525233;28;1892;-78
2021/10/31 18:20:41;;;;;;;;;;;11.90;99.90;;;10.63;89.39;94564.84;10540756;28;1895;-79
2021/10/31 18:25:44;;;;;;;;;;;11.90;99.90;;;10.43;89.70;94557.19;10538796;28;1913;-79
2021/10/31 18:30:47;;;;;;;;;;;11.70;99.90;;;10.44;89.33;94556.13;10546904;28;2101;-79
2021/10/31 18:35:49;;;;;;;;;;;11.60;99.90;;;10.39;88.97;94554.34;10533709;28;1957;-77
2021/10/31 18:40:52;;;;;;;;;;;11.50;99.90;;;10.44;87.61;94550.75;10536734;28;2054;-78
2021/10/31 18:45:56;;;;;;;;;;;11.60;99.90;;;10.60;85.53;94549.28;10541349;28;1898;-78
2021/10/31 18:50:59;;;;;;;;;;;11.60;99.90;;;10.55;85.53;94539.44;10544686;28;2279;-79
2021/10/31 18:56:02;;;;;;;;;;;11.70;99.90;;;10.44;86.12;94534.63;10532311;28;1925;-78
2021/10/31 19:01:06;;;;;;;;;;;11.60;99.90;;;10.53;85.10;94543.56;10543332;28;1856;-76
2021/10/31 19:06:12;;;;;;;;;;;11.60;99.90;;;10.46;85.34;94532.44;10524448;28;1913;-78
2021/10/31 19:11:15;;;;;;;;;;;11.60;99.90;;;10.29;86.29;94530.38;10544595;28;1925;-79
2021/10/31 19:16:19;;;;;;;;;;;11.50;99.90;;;10.29;86.91;94527.69;10521784;28;2226;-77
2021/10/31 19:21:24;;;;;;;;;;;11.40;99.90;;;10.31;87.33;94527.38;10531828;28;2004;-78
2021/10/31 19:26:29;;;;;;;;;;;11.50;99.90;;;10.28;87.77;94509.97;10539494;28;2072;-76
2021/10/31 19:31:39;;;;;;;;;;;11.50;99.90;;;10.21;88.66;94498.81;10530935;28;2011;-77
2021/10/31 19:36:42;;;;;;;;;;;11.40;99.90;;;10.24;88.93;94504.44;10536718;28;1932;-78
2021/10/31 19:41:45;;;;;;;;;;;11.40;99.90;;;10.19;89.30;94509.09;10536051;28;1907;-77
2021/10/31 19:46:49;;;;;;;;;;;11.40;99.90;;;10.20;89.50;94505.31;10565480;28;2018;-76
2021/10/31 19:51:52;;;;;;;;;;;11.30;99.90;;;9.98;90.72;94492.59;10571345;28;1959;-78
2021/10/31 19:56:55;;;;;;;;;;;11.30;99.90;;;9.83;91.70;94500.97;10576253;28;1834;-81
2021/10/31 20:01:58;;;;;;;;;;;11.10;99.90;;;9.73;92.67;94502.78;10569368;28;2152;-78
2021/10/31 20:07:21;;;;;;;;;;;11.00;99.90;;;9.68;93.31;94499.41;10577681;28;2007;-79
2021/10/31 20:12:44;;;;;;;;;;;10.90;99.90;;;9.57;94.61;94498.78;10537774;28;1901;-77
2021/10/31 20:18:08;;;;;;;;;;;10.80;99.90;;;9.47;95.28;94507.03;10532526;28;1777;-78
2021/10/31 20:23:31;;;;;;;;;;;10.70;99.90;;;9.38;95.15;94508.81;10535173;28;2004;-78
2021/10/31 20:28:54;;;;;;;;;;;10.60;99.90;;;9.25;96.83;94507.69;10531494;28;2067;-77
2021/10/31 20:34:16;;;;;;;;;;;10.50;99.90;;;9.14;97.86;94506.28;10522648;28;2106;-79
2021/10/31 20:39:39;;;;;;;;;;;10.40;99.90;;;9.00;99.78;94503.56;10535581;28;1934;-77
2021/10/31 20:45:03;;;;;;;;;;;10.30;99.90;;;8.92;99.95;94509.63;10526083;28;1943;-78
2021/10/31 20:50:24;;;;;;;;;;;10.20;99.90;;;8.84;100.00;94512.94;10526545;28;1944;-78
2021/10/31 20:55:50;;;;;;;;;;;10.10;99.90;;;8.67;100.00;94513.50;10527154;28;1913;-78
2021/10/31 21:01:14;;;;;;;;;;;10.00;99.90;;;8.70;100.00;94509.44;10524264;28;1861;-79
2021/10/31 21:06:36;;;;;;;;;;;9.90;99.90;;;8.83;100.00;94519.41;10526403;28;1913;-78
2021/10/31 21:11:58;;;;;;;;;;;10.00;99.90;;;8.76;100.00;94527.03;10532430;28;1939;-78
2021/10/31 21:17:19;;;;;;;;;;;10.00;99.90;;;8.62;100.00;94525.09;10524801;28;2026;-77
2021/10/31 21:22:41;;;;;;;;;;;10.00;99.90;;;8.63;100.00;94553.47;10535418;28;1980;-77
2021/10/31 21:28:02;;;;;;;;;;;9.90;99.90;;;8.56;100.00;94557.59;10565397;28;1916;-77
2021/10/31 21:33:24;;;;;;;;;;;9.80;99.90;;;8.56;100.00;94558.38;10575965;28;1980;-78
2021/10/31 21:38:47;;;;;;;;;;;9.80;99.90;;;8.57;100.00;94556.50;10551610;28;1623;-78
2021/10/31 21:44:08;;;;;;;;;;;9.70;99.90;;;8.47;100.00;94554.78;10535661;28;2114;-77
2021/10/31 21:49:32;;;;;;;;;;;9.80;99.90;;;8.32;100.00;94553.06;10530529;28;1924;-77
2021/10/31 21:54:53;;;;;;;;;;;9.60;99.90;;;8.23;100.00;94551.34;10545920;28;1946;-78
2021/10/31 22:00:15;;;;;;;;;;;9.50;99.90;;;8.15;100.00;94543.97;10537342;28;2075;-78
2021/10/31 22:05:37;;;;;;;;;;;9.40;99.90;;;8.09;100.00;94541.34;10532246;28;1951;-78
2021/10/31 22:11:00;;;;;;;;;;;9.40;99.90;;;7.98;100.00;94539.06;10536764;28;2313;-78
2021/10/31 22:16:03;;;;;;;;;;;9.30;99.90;;;7.90;100.00;94539.72;10525683;28;1913;-78
2021/10/31 22:21:07;;;;;;;;;;;9.20;99.90;;;7.88;100.00;94528.50;10549482;28;1911;-79
2021/10/31 22:26:10;;;;;;;;;;;9.10;99.90;;;7.85;100.00;94527.19;10528312;28;2027;-78
2021/10/31 22:31:13;;;;;;;;;;;9.00;99.90;;;7.82;100.00;94533.09;10528932;28;1893;-78
2021/10/31 22:36:16;;;;;;;;;;;9.00;99.90;;;7.78;100.00;94521.41;10534004;28;1935;-77
2021/10/31 22:41:19;;;;;;;;;;;9.00;99.90;;;7.76;100.00;94523.53;10534166;28;1901;-78
2021/10/31 22:46:21;;;;;;;;;;;9.00;99.90;;;7.78;100.00;94514.16;10528031;28;2174;-78
2021/10/31 22:51:25;;;;;;;;;;;8.90;99.90;;;7.83;100.00;94510.63;10530281;28;1931;-78
2021/10/31 22:56:27;;;;;;;;;;;9.00;99.90;;;7.93;100.00;94507.03;10532789;28;2090;-78
2021/10/31 23:01:30;;;;;;;;;;;9.20;99.90;;;8.00;100.00;94508.25;10527330;28;1876;-77
2021/10/31 23:06:33;;;;;;;;;;;9.10;99.90;;;8.08;100.00;94496.13;10525693;28;1988;-78
2021/10/31 23:11:37;;;;;;;;;;;9.20;99.90;;;8.07;100.00;94503.34;10525077;28;1916;-78
2021/10/31 23:16:40;;;;;;;;;;;9.20;99.90;;;8.14;100.00;94494.94;10532035;28;1936;-77
2021/10/31 23:21:43;;;;;;;;;;;9.30;99.90;;;8.15;100.00;94482.38;10522787;28;2075;-78
2021/10/31 23:26:46;;;;;;;;;;;9.30;99.90;;;8.31;100.00;94487.22;10524061;28;1941;-78
2021/10/31 23:31:48;;;;;;;;;;;9.40;99.90;;;8.34;100.00;94486.66;10529676;28;2039;-77